Time;durP1;ratioP1;P1;durP2;ratioP2;P2;SDS_P1;SDS_P2;PMS_P1;PMS_P2;Temp;Humidity;BMP_temperature;BMP_pressure;BME280_temperature;BME280_humidity;BME280_pressure;Samples;Min_cycle;Max_cycle;Signal;HPM_P1;HPM_P2
2022/07/24 00:01:24;;;;;;;19.52;14.18;;;;;;;22.74;62.87;99395.88;5144344;28;20066;-72
2022/07/24 00:04:14;;;;;;;18.30;14.05;;;;;;;22.74;62.72;99395.88;5140684;28;20508;-71
2022/07/24 00:07:04;;;;;;;20.33;14.20;;;;;;;22.62;61.70;99385.97;5140768;28;20050;-71
2022/07/24 00:09:55;;;;;;;23.33;14.80;;;;;;;22.72;62.73;99395.28;5139309;28;20499;-71
2022/07/24 00:12:45;;;;;;;21.27;14.48;;;;;;;22.83;62.87;99404.59;5136753;28;20150;-72
2022/07/24 00:15:36;;;;;;;22.50;14.30;;;;;;;22.84;63.19;99400.00;5140007;28;20042;-72
2022/07/24 00:18:26;;;;;;;21.08;14.23;;;;;;;22.81;63.46;99400.44;5140706;28;20058;-71
2022/07/24 00:21:17;;;;;;;20.85;13.88;;;;;;;22.72;63.03;99406.09;5141654;28;20155;-73
2022/07/24 00:24:08;;;;;;;19.27;13.95;;;;;;;22.71;63.69;99406.28;5145545;28;20078;-71
2022/07/24 00:27:00;;;;;;;21.85;13.75;;;;;;;22.82;62.79;99400.25;5144916;28;20403;-71
2022/07/24 00:29:51;;;;;;;26.20;14.70;;;;;;;22.81;63.34;99400.44;5143666;28;20071;-71
2022/07/24 00:32:41;;;;;;;19.20;14.18;;;;;;;22.68;63.85;99387.78;5145093;28;20097;-71
2022/07/24 00:35:34;;;;;;;24.20;15.05;;;;;;;22.68;63.18;99399.47;5145298;28;20054;-71
2022/07/24 00:38:24;;;;;;;17.70;14.23;;;;;;;22.44;64.64;99400.94;5145370;28;20579;-73
2022/07/24 00:41:14;;;;;;;20.30;14.80;;;;;;;22.47;63.68;99378.91;5138270;28;20563;-72
2022/07/24 00:44:08;;;;;;;21.20;13.80;;;;;;;22.61;63.41;99400.50;5142414;28;20090;-72
2022/07/24 00:46:58;;;;;;;20.08;14.93;;;;;;;22.36;64.30;99387.69;5139752;28;20417;-71
2022/07/24 00:49:49;;;;;;;20.98;14.85;;;;;;;22.56;63.39;99400.31;5141327;28;20053;-72
2022/07/24 00:52:39;;;;;;;19.95;14.32;;;;;;;22.43;63.03;99398.47;5141271;28;20056;-72
2022/07/24 00:55:30;;;;;;;25.25;14.23;;;;;;;22.44;63.81;99395.53;5140903;28;20504;-71
2022/07/24 00:58:20;;;;;;;22.88;14.93;;;;;;;22.49;63.67;99395.75;5141138;28;20059;-71
2022/07/24 01:01:10;;;;;;;21.50;15.82;;;;;;;22.37;63.62;99389.34;5140752;28;20393;-71
2022/07/24 01:04:01;;;;;;;20.85;14.70;;;;;;;22.17;63.74;99394.75;5144696;28;20046;-72
2022/07/24 01:06:52;;;;;;;22.58;14.02;;;;;;;22.12;63.54;99399.94;5146253;28;20121;-72
2022/07/24 01:09:43;;;;;;;21.48;14.93;;;;;;;22.02;64.30;99392.25;5150535;28;20054;-72
2022/07/24 01:12:35;;;;;;;20.00;15.18;;;;;;;22.10;64.09;99399.31;5147910;28;20061;-71
2022/07/24 01:15:25;;;;;;;21.63;15.32;;;;;;;22.13;63.08;99398.06;5146194;28;20050;-72
2022/07/24 01:18:17;;;;;;;26.23;16.65;;;;;;;22.00;63.30;99390.78;5144762;28;20522;-73
2022/07/24 01:21:07;;;;;;;21.17;14.95;;;;;;;21.66;64.43;99394.53;5143850;28;20058;-71
2022/07/24 01:23:58;;;;;;;22.38;15.60;;;;;;;21.56;64.31;99394.94;5144297;28;20057;-72
2022/07/24 01:26:48;;;;;;;21.58;14.60;;;;;;;21.72;64.31;99385.59;5147953;28;20160;-72
2022/07/24 01:29:39;;;;;;;17.58;14.68;;;;;;;21.75;63.82;99388.69;5140890;28;20054;-72
2022/07/24 01:32:29;;;;;;;21.20;15.23;;;;;;;21.72;63.85;99388.28;5146742;28;20166;-72
2022/07/24 01:35:19;;;;;;;21.63;16.20;;;;;;;21.68;64.04;99395.97;5146373;28;20066;-73
2022/07/24 01:38:15;;;;;;;23.50;15.63;;;;;;;21.65;64.08;99392.84;5144653;28;20078;-72
2022/07/24 01:41:05;;;;;;;24.15;15.57;;;;;;;21.54;64.37;99392.41;5141937;28;20517;-71
2022/07/24 01:43:56;;;;;;;23.73;16.63;;;;;;;21.56;64.20;99394.94;5144049;28;20050;-72
2022/07/24 01:46:46;;;;;;;22.35;16.30;;;;;;;21.29;64.71;99392.16;5144761;28;20039;-71
2022/07/24 01:49:36;;;;;;;22.27;15.50;;;;;;;21.44;64.84;99399.25;5144476;28;20298;-71
2022/07/24 01:52:26;;;;;;;22.65;15.93;;;;;;;21.12;65.39;99390.81;5143425;28;20140;-71
2022/07/24 01:55:16;;;;;;;20.70;15.38;;;;;;;21.00;65.66;99384.38;5144064;28;20137;-71
2022/07/24 01:58:06;;;;;;;22.02;16.80;;;;;;;21.05;65.90;99395.38;5149370;28;20057;-73
2022/07/24 02:00:57;;;;;;;23.13;16.23;;;;;;;21.16;65.81;99391.25;5142717;28;20426;-71
2022/07/24 02:03:48;;;;;;;22.35;15.93;;;;;;;21.21;65.58;99389.63;5143886;28;20054;-72
2022/07/24 02:06:38;;;;;;;21.67;16.55;;;;;;;21.14;65.85;99388.75;5144400;28;20680;-72
2022/07/24 02:09:28;;;;;;;25.45;17.73;;;;;;;20.99;66.54;99380.84;5144360;28;20145;-72
2022/07/24 02:12:18;;;;;;;22.48;15.85;;;;;;;20.93;65.47;99378.13;5146671;28;20174;-72
2022/07/24 02:15:09;;;;;;;20.13;15.68;;;;;;;20.92;64.59;99379.97;5143196;28;20070;-71
2022/07/24 02:18:01;;;;;;;27.70;16.25;;;;;;;20.95;64.43;99384.97;5141864;28;20772;-72
2022/07/24 02:20:51;;;;;;;25.20;15.95;;;;;;;20.96;65.18;99383.94;5142887;28;20070;-73
2022/07/24 02:23:42;;;;;;;25.13;16.30;;;;;;;20.96;65.73;99385.78;5143380;28;20050;-72
2022/07/24 02:26:32;;;;;;;22.70;16.77;;;;;;;20.87;66.00;99388.66;5147154;28;20043;-71
2022/07/24 02:29:22;;;;;;;22.60;16.55;;;;;;;20.87;66.37;99398.63;5141216;28;20193;-72
2022/07/24 02:32:12;;;;;;;25.17;16.80;;;;;;;20.87;66.10;99398.63;5142452;28;20599;-72
2022/07/24 02:35:03;;;;;;;23.48;16.75;;;;;;;20.78;67.57;99379.09;5145471;28;20129;-72
2022/07/24 02:37:56;;;;;;;21.60;16.95;;;;;;;20.81;67.55;99394.84;5146546;28;20054;-72
2022/07/24 02:40:47;;;;;;;24.25;17.60;;;;;;;20.85;67.45;99381.81;5142867;28;20058;-73
2022/07/24 02:43:36;;;;;;;25.88;16.52;;;;;;;20.78;67.08;99389.03;5144763;28;20434;-71
2022/07/24 02:46:27;;;;;;;22.15;16.33;;;;;;;20.76;66.70;99386.56;5150056;28;20062;-71
2022/07/24 02:49:17;;;;;;;22.92;16.55;;;;;;;20.74;66.51;99382.38;5140941;28;20148;-72
2022/07/24 02:52:08;;;;;;;24.65;16.35;;;;;;;20.62;65.77;99393.72;5142731;28;20059;-72
2022/07/24 02:54:58;;;;;;;22.55;16.38;;;;;;;20.64;66.89;99391.66;5143260;28;20057;-72
2022/07/24 02:57:48;;;;;;;22.75;15.65;;;;;;;20.67;66.48;99386.91;5141876;28;20075;-71
2022/07/24 03:00:38;;;;;;;21.27;15.77;;;;;;;20.47;66.07;99387.59;5147416;28;20417;-71
2022/07/24 03:03:28;;;;;;;21.30;15.98;;;;;;;20.29;66.50;99381.88;5142573;28;20061;-72
2022/07/24 03:06:18;;;;;;;24.42;16.88;;;;;;;20.41;65.93;99402.69;5146086;28;20127;-72
2022/07/24 03:09:09;;;;;;;24.77;17.65;;;;;;;20.46;66.19;99402.09;5146886;28;20538;-72
2022/07/24 03:11:58;;;;;;;22.85;16.17;;;;;;;20.41;66.31;99400.00;5143474;28;20449;-71
2022/07/24 03:14:49;;;;;;;23.67;16.55;;;;;;;20.23;66.90;99402.38;5140297;28;20049;-72
2022/07/24 03:17:47;;;;;;;23.02;16.65;;;;;;;20.37;66.87;99397.91;5147575;28;20046;-72
2022/07/24 03:20:37;;;;;;;22.90;16.95;;;;;;;20.29;67.00;99398.88;5143184;28;20549;-72
2022/07/24 03:23:28;;;;;;;22.63;16.65;;;;;;;20.14;67.32;99396.28;5142543;28;20516;-71
2022/07/24 03:26:18;;;;;;;25.83;17.30;;;;;;;20.21;67.00;99388.25;5142142;28;20730;-72
2022/07/24 03:29:14;;;;;;;23.63;16.85;;;;;;;20.25;67.43;99396.78;5144077;28;20053;-72
2022/07/24 03:32:04;;;;;;;23.67;17.30;;;;;;;20.25;66.74;99400.28;5140667;28;20057;-71
2022/07/24 03:34:54;;;;;;;22.85;16.75;;;;;;;19.95;68.44;99400.47;5141217;28;20062;-71
2022/07/24 03:37:45;;;;;;;23.80;16.45;;;;;;;19.97;67.14;99403.00;5144631;28;20042;-71
2022/07/24 03:40:35;;;;;;;23.13;16.27;;;;;;;19.61;66.77;99357.31;5142841;28;20537;-73
2022/07/24 03:43:25;;;;;;;24.92;18.08;;;;;;;19.81;68.02;99392.50;5142052;28;20055;-72
2022/07/24 03:46:16;;;;;;;23.05;16.67;;;;;;;20.03;69.02;99409.44;5148166;28;20042;-72
2022/07/24 03:49:06;;;;;;;25.35;17.67;;;;;;;20.05;68.38;99408.22;5143457;28;20493;-71
2022/07/24 03:51:57;;;;;;;22.20;16.73;;;;;;;20.05;67.72;99410.09;5137541;28;20046;-71
2022/07/24 03:54:47;;;;;;;24.70;17.80;;;;;;;20.05;67.66;99410.09;5145325;28;20117;-72
2022/07/24 03:57:37;;;;;;;25.05;18.23;;;;;;;20.08;67.60;99401.63;5142805;28;20096;-72
2022/07/24 04:00:27;;;;;;;23.85;17.52;;;;;;;19.95;68.17;99418.50;5154784;28;20066;-72
2022/07/24 04:03:17;;;;;;;24.58;16.83;;;;;;;19.99;67.99;99417.06;5146022;28;20260;-72
2022/07/24 04:06:08;;;;;;;24.15;17.77;;;;;;;19.94;67.67;99416.84;5141869;28;20050;-72
2022/07/24 04:08:58;;;;;;;27.10;16.95;;;;;;;19.77;68.25;99412.72;5138649;28;20445;-72
2022/07/24 04:11:49;;;;;;;20.48;16.15;;;;;;;19.82;67.90;99418.38;5140833;28;20050;-72
2022/07/24 04:14:39;;;;;;;23.05;17.27;;;;;;;19.91;68.24;99419.91;5146468;28;20058;-72
2022/07/24 04:17:29;;;;;;;28.23;18.05;;;;;;;19.73;69.13;99427.59;5141434;28;20421;-72
2022/07/24 04:20:19;;;;;;;24.38;17.27;;;;;;;19.84;67.60;99429.78;5141928;28;20067;-72
2022/07/24 04:23:09;;;;;;;25.85;18.08;;;;;;;20.09;67.85;99431.03;5145168;28;20049;-72
2022/07/24 04:26:00;;;;;;;26.05;19.08;;;;;;;20.05;68.17;99442.38;5138659;28;20450;-71
2022/07/24 04:28:50;;;;;;;24.20;17.45;;;;;;;20.10;67.88;99448.88;5145769;28;20146;-71
2022/07/24 04:31:41;;;;;;;25.05;17.98;;;;;;;20.02;67.60;99437.38;5143638;28;20196;-72
2022/07/24 04:34:31;;;;;;;23.73;17.00;;;;;;;19.98;66.59;99445.03;5142162;28;20093;-72
2022/07/24 04:37:22;;;;;;;22.05;17.17;;;;;;;19.89;69.75;99448.88;5141226;28;20560;-72
2022/07/24 04:40:13;;;;;;;23.65;17.75;;;;;;;20.10;69.14;99445.34;5140679;28;20056;-72
2022/07/24 04:43:02;;;;;;;25.38;17.15;;;;;;;20.20;68.10;99445.84;5142562;28;20050;-72
2022/07/24 04:45:54;;;;;;;23.00;16.52;;;;;;;20.03;68.98;99428.28;5138371;28;20046;-72
2022/07/24 04:48:45;;;;;;;23.35;17.35;;;;;;;20.05;69.41;99427.06;5141629;28;20046;-72
2022/07/24 04:51:35;;;;;;;30.67;18.63;;;;;;;20.36;68.84;99447.38;5141714;28;20086;-72
2022/07/24 04:54:25;;;;;;;23.67;17.23;;;;;;;20.44;68.42;99444.56;5140574;28;20057;-72
2022/07/24 04:57:16;;;;;;;25.67;18.42;;;;;;;20.57;68.79;99443.84;5139877;28;20061;-72
2022/07/24 05:00:09;;;;;;;29.15;18.48;;;;;;;20.65;68.58;99444.50;5141375;28;20132;-73
2022/07/24 05:02:59;;;;;;;28.88;19.20;;;;;;;20.62;68.42;99450.28;5139193;28;20569;-72
2022/07/24 05:05:50;;;;;;;27.08;17.77;;;;;;;20.73;68.26;99450.78;5142160;28;20117;-72
2022/07/24 05:08:40;;;;;;;26.40;18.42;;;;;;;20.63;68.74;99446.59;5141024;28;20054;-73
2022/07/24 05:11:30;;;;;;;26.50;18.65;;;;;;;20.62;68.04;99454.84;5141574;28;20117;-73
2022/07/24 05:14:21;;;;;;;25.73;18.00;;;;;;;20.61;68.68;99439.72;5142198;28;20545;-72
2022/07/24 05:17:12;;;;;;;27.10;19.48;;;;;;;20.67;69.83;99462.38;5141016;28;20046;-71
2022/07/24 05:20:04;;;;;;;27.02;20.30;;;;;;;20.75;70.01;99460.31;5141453;28;20064;-71
2022/07/24 05:22:54;;;;;;;25.55;19.05;;;;;;;20.83;68.09;99440.50;5141381;28;20114;-72
2022/07/24 05:25:44;;;;;;;26.95;20.38;;;;;;;21.09;67.87;99456.78;5139098;28;20065;-73
2022/07/24 05:28:38;;;;;;;27.92;20.52;;;;;;;21.06;67.34;99456.38;5140882;28;20141;-71
2022/07/24 05:31:29;;;;;;;25.55;19.20;;;;;;;21.28;66.95;99457.88;5143377;28;20416;-73
2022/07/24 05:34:21;;;;;;;30.17;19.77;;;;;;;21.51;66.23;99462.97;5124272;28;20191;-73
2022/07/24 05:37:11;;;;;;;25.08;18.50;;;;;;;21.53;66.64;99457.38;5140563;28;20106;-72
2022/07/24 05:40:01;;;;;;;27.40;18.40;;;;;;;21.91;64.56;99444.16;5139270;28;20054;-72
2022/07/24 05:42:55;;;;;;;25.45;18.38;;;;;;;21.89;64.36;99448.13;5136898;28;20531;-71
2022/07/24 05:45:45;;;;;;;25.17;17.15;;;;;;;21.69;64.39;99442.66;5141965;28;20047;-73
2022/07/24 05:48:35;;;;;;;24.48;17.02;;;;;;;21.84;64.18;99446.03;5141989;28;20550;-73
2022/07/24 05:51:25;;;;;;;21.63;17.27;;;;;;;21.96;64.17;99448.97;5147330;28;20066;-72
2022/07/24 05:54:15;;;;;;;22.13;16.58;;;;;;;21.99;64.17;99453.94;5143587;28;20185;-72
2022/07/24 05:57:06;;;;;;;24.45;17.00;;;;;;;22.23;63.13;99450.66;5144024;28;20050;-72
2022/07/24 05:59:57;;;;;;;23.88;16.17;;;;;;;22.21;63.56;99447.31;5141293;28;20055;-72
2022/07/24 06:02:47;;;;;;;23.13;16.33;;;;;;;22.43;62.89;99444.41;5147928;28;20057;-72
2022/07/24 06:05:37;;;;;;;19.98;15.30;;;;;;;22.61;61.86;99443.75;5144603;28;20623;-72
2022/07/24 06:08:27;;;;;;;24.58;15.50;;;;;;;22.91;61.05;99444.06;5143233;28;20054;-72
2022/07/24 06:11:17;;;;;;;22.88;16.33;;;;;;;22.79;62.06;99452.03;5143748;28;20417;-73
2022/07/24 06:14:08;;;;;;;20.08;15.10;;;;;;;22.86;61.23;99450.13;5142629;28;20051;-72
2022/07/24 06:16:59;;;;;;;19.63;14.75;;;;;;;22.95;61.13;99454.31;5141347;28;20043;-72
2022/07/24 06:19:50;;;;;;;19.25;15.10;;;;;;;22.93;60.98;99458.25;5145875;28;20054;-71
2022/07/24 06:22:41;;;;;;;20.48;15.57;;;;;;;22.85;61.73;99432.25;5145968;28;20564;-71
2022/07/24 06:25:37;;;;;;;18.63;15.18;;;;;;;23.14;61.09;99451.72;5146317;28;20051;-71
2022/07/24 06:28:28;;;;;;;21.25;15.52;;;;;;;23.25;60.54;99450.25;5145495;28;20043;-71
2022/07/24 06:31:18;;;;;;;20.38;15.32;;;;;;;23.31;61.23;99450.22;5145500;28;20058;-71
2022/07/24 06:34:08;;;;;;;18.65;14.98;;;;;;;23.47;60.21;99450.75;5146645;28;20113;-71
2022/07/24 06:36:59;;;;;;;21.52;14.85;;;;;;;23.56;59.81;99449.44;5142270;28;20547;-71
2022/07/24 06:39:49;;;;;;;19.33;15.00;;;;;;;23.78;59.90;99447.28;5142720;28;20422;-71
2022/07/24 06:42:39;;;;;;;20.15;15.43;;;;;;;23.72;60.93;99438.16;5144896;28;20058;-71
2022/07/24 06:45:32;;;;;;;19.67;14.57;;;;;;;23.78;59.36;99441.88;5141875;28;20057;-71
2022/07/24 06:48:22;;;;;;;19.65;14.88;;;;;;;24.05;58.72;99445.19;5144051;28;20109;-72
2022/07/24 06:51:12;;;;;;;19.65;14.63;;;;;;;24.12;60.13;99449.50;5143685;28;20722;-71
2022/07/24 06:54:02;;;;;;;22.50;14.20;;;;;;;24.45;57.39;99442.19;5143222;28;20057;-71
2022/07/24 06:56:53;;;;;;;18.30;12.35;;;;;;;24.52;56.13;99445.66;5145510;28;20082;-71
2022/07/24 06:59:43;;;;;;;16.95;13.55;;;;;;;24.67;56.21;99448.84;5143162;28;20051;-70
2022/07/24 07:02:34;;;;;;;20.98;12.30;;;;;;;25.11;53.26;99444.16;5142165;28;20043;-70
2022/07/24 07:05:24;;;;;;;15.13;10.23;;;;;;;25.18;50.53;99427.84;5142313;28;20066;-72
2022/07/24 07:08:14;;;;;;;16.80;12.05;;;;;;;25.07;53.42;99449.22;5143579;28;20105;-70
2022/07/24 07:11:04;;;;;;;16.80;11.65;;;;;;;24.95;53.44;99445.59;5143090;28;20528;-70
2022/07/24 07:13:55;;;;;;;13.52;10.20;;;;;;;25.46;52.02;99435.38;5144248;28;20062;-71
2022/07/24 07:16:45;;;;;;;14.43;9.82;;;;;;;26.17;49.22;99442.69;5143289;28;20117;-70
2022/07/24 07:19:34;;;;;;;14.30;11.07;;;;;;;27.49;47.61;99435.81;5142847;28;20117;-71
2022/07/24 07:22:25;;;;;;;15.35;10.35;;;;;;;28.46;45.03;99442.94;5141632;28;20081;-72
2022/07/24 07:25:15;;;;;;;14.48;10.02;;;;;;;29.11;43.65;99446.06;5142751;28;20046;-71
2022/07/24 07:28:05;;;;;;;12.60;9.68;;;;;;;29.48;42.27;99448.94;5155987;28;20051;-71
2022/07/24 07:30:56;;;;;;;12.13;9.32;;;;;;;29.99;41.92;99449.47;5143783;28;20046;-72
2022/07/24 07:33:47;;;;;;;14.80;9.38;;;;;;;30.22;40.29;99448.31;5140657;28;20061;-72
2022/07/24 07:36:37;;;;;;;10.65;9.55;;;;;;;30.89;39.21;99444.13;5142172;28;20140;-70
2022/07/24 07:39:27;;;;;;;14.35;9.18;;;;;;;30.61;40.29;99442.56;5141770;28;20082;-70
2022/07/24 07:42:17;;;;;;;12.40;9.00;;;;;;;31.49;38.24;99440.00;5140831;28;20193;-69
2022/07/24 07:45:08;;;;;;;11.18;8.75;;;;;;;31.13;38.43;99444.53;5132921;28;20441;-70
2022/07/24 07:47:59;;;;;;;10.50;8.68;;;;;;;31.07;38.98;99445.59;5137738;28;20054;-70
2022/07/24 07:50:50;;;;;;;12.02;9.52;;;;;;;31.26;38.68;99444.03;5139191;28;20054;-70
2022/07/24 07:53:40;;;;;;;9.55;7.68;;;;;;;31.78;38.05;99432.09;5139831;28;20047;-70
2022/07/24 07:56:32;;;;;;;11.30;8.45;;;;;;;32.16;38.38;99438.19;5141423;28;20054;-69
2022/07/24 07:59:22;;;;;;;9.55;8.55;;;;;;;32.54;36.88;99441.44;5141012;28;20077;-70
2022/07/24 08:02:13;;;;;;;12.30;9.68;;;;;;;31.82;38.53;99432.34;5152806;28;20059;-71
2022/07/24 08:05:03;;;;;;;13.35;9.60;;;;;;;32.77;37.57;99436.44;5140046;28;20046;-72
2022/07/24 08:07:54;;;;;;;10.80;8.52;;;;;;;33.23;35.85;99439.88;5140788;28;20189;-72
2022/07/24 08:10:45;;;;;;;11.18;8.52;;;;;;;33.25;37.07;99431.38;5136738;28;20572;-72
2022/07/24 08:13:35;;;;;;;9.15;7.90;;;;;;;33.50;35.89;99433.16;5131723;28;20090;-71
2022/07/24 08:16:25;;;;;;;10.55;7.60;;;;;;;32.89;34.71;99425.97;5127109;28;20062;-72
2022/07/24 08:19:15;;;;;;;10.15;7.80;;;;;;;32.88;34.71;99430.66;5129204;28;20441;-72
2022/07/24 08:22:06;;;;;;;10.82;7.18;;;;;;;33.31;33.33;99414.56;5127757;28;20622;-72
2022/07/24 08:24:56;;;;;;;8.55;6.82;;;;;;;33.06;32.86;99410.00;5127288;28;20046;-73
2022/07/24 08:27:46;;;;;;;9.93;7.10;;;;;;;32.94;32.61;99424.03;5130382;28;20154;-73
2022/07/24 08:30:37;;;;;;;8.40;7.45;;;;;;;33.08;34.36;99398.72;5126459;28;20098;-73
2022/07/24 08:33:27;;;;;;;13.35;7.10;;;;;;;34.00;33.19;99420.97;5130153;28;20141;-72
2022/07/24 08:36:17;;;;;;;15.52;7.25;;;;;;;33.52;32.13;99406.22;5131283;28;20516;-70
2022/07/24 08:39:08;;;;;;;11.10;6.95;;;;;;;33.43;33.14;99417.78;5127646;28;20050;-69
2022/07/24 08:42:00;;;;;;;11.55;7.57;;;;;;;32.82;36.69;99414.47;5139468;28;20105;-70
2022/07/24 08:44:50;;;;;;;10.43;7.95;;;;;;;34.03;33.35;99409.41;5135917;28;20065;-70
2022/07/24 08:47:41;;;;;;;10.93;7.32;;;;;;;32.70;34.53;99404.63;5136901;28;20125;-73
2022/07/24 08:50:32;;;;;;;9.68;6.93;;;;;;;32.66;34.22;99397.22;5155011;28;20047;-71
2022/07/24 08:53:23;;;;;;;11.75;7.80;;;;;;;32.39;34.14;99409.34;5135455;28;20082;-72
2022/07/24 08:56:13;;;;;;;10.50;7.50;;;;;;;34.08;33.62;99412.13;5129562;28;20055;-72
2022/07/24 08:59:04;;;;;;;10.10;7.85;;;;;;;34.75;31.01;99397.72;5126257;28;20087;-74
2022/07/24 09:01:55;;;;;;;11.95;8.23;;;;;;;34.12;32.95;99406.88;5132262;28;20074;-71
2022/07/24 09:04:47;;;;;;;9.90;7.75;;;;;;;33.41;32.92;99400.75;5134362;28;20505;-71
2022/07/24 09:07:38;;;;;;;9.30;7.90;;;;;;;33.99;32.17;99404.75;5130094;28;20158;-72
2022/07/24 09:10:28;;;;;;;10.82;8.43;;;;;;;31.50;34.93;99391.50;5124494;28;20053;-75
2022/07/24 09:13:19;;;;;;;10.68;8.43;;;;;;;33.80;32.59;99410.94;5128663;28;20066;-74
2022/07/24 09:16:22;;;;;;;10.52;7.75;;;;;;;34.57;30.90;99404.78;5129377;28;20083;-74
2022/07/24 09:19:15;;;;;;;10.00;8.27;;;;;;;34.64;31.53;99407.19;5139876;28;20058;-75
2022/07/24 09:22:05;;;;;;;8.57;7.68;;;;;;;34.48;31.15;99406.53;5140936;28;20128;-74
2022/07/24 09:25:13;;;;;;;9.93;7.82;;;;;;;33.91;30.74;99407.03;5143949;28;20073;-74
2022/07/24 09:28:04;;;;;;;11.07;7.88;;;;;;;33.72;32.56;99405.25;5143063;28;20093;-73
2022/07/24 09:31:02;;;;;;;13.02;8.07;;;;;;;34.99;31.39;99408.69;5143577;28;20630;-73
2022/07/24 09:33:52;;;;;;;13.13;7.70;;;;;;;35.53;30.31;99404.69;5144530;28;20042;-75
2022/07/24 09:36:55;;;;;;;10.70;7.85;;;;;;;33.43;32.38;99405.97;5139973;28;20077;-74
2022/07/24 09:39:46;;;;;;;10.25;7.28;;;;;;;34.34;29.88;99400.88;5143464;28;20061;-73
2022/07/24 09:42:38;;;;;;;11.02;7.72;;;;;;;33.44;30.95;99399.34;5132171;28;20058;-72
2022/07/24 09:46:09;;;;;;;9.50;7.10;;;;;;;34.80;31.44;99400.38;5143878;28;20141;-74
2022/07/24 09:49:00;;;;;;;11.25;7.35;;;;;;;34.35;30.11;99395.06;5142984;28;20687;-74
2022/07/24 09:52:13;;;;;;;7.72;6.47;;;;;;;34.06;29.81;99397.00;5144060;28;20093;-74
2022/07/24 09:55:03;;;;;;;9.60;6.97;;;;;;;35.58;29.54;99377.06;5144085;28;20043;-75
2022/07/24 09:57:54;;;;;;;11.15;6.30;;;;;;;35.70;29.71;99387.63;5142360;28;20536;-73
2022/07/24 10:00:46;;;;;;;8.52;6.65;;;;;;;35.83;29.37;99386.88;5144100;28;20053;-73
2022/07/24 10:03:38;;;;;;;7.55;6.63;;;;;;;36.77;26.75;99388.47;5144330;28;20057;-73
2022/07/24 10:06:30;;;;;;;7.30;6.60;;;;;;;36.89;27.52;99374.97;5143182;28;20046;-73
2022/07/24 10:09:24;;;;;;;7.80;6.60;;;;;;;36.81;27.72;99381.22;5144018;28;20053;-73
2022/07/24 10:12:26;;;;;;;8.98;6.30;;;;;;;36.82;27.93;99376.50;5143345;28;20084;-73
2022/07/24 10:15:17;;;;;;;7.97;6.40;;;;;;;36.79;27.33;99374.34;5140707;28;20047;-75
2022/07/24 10:18:15;;;;;;;8.52;6.32;;;;;;;36.50;27.34;99369.97;5143854;28;20047;-72
2022/07/24 10:21:10;;;;;;;7.68;6.00;;;;;;;36.32;26.30;99357.84;5141311;28;20061;-73
2022/07/24 10:24:10;;;;;;;8.30;6.43;;;;;;;34.70;29.27;99372.97;5143045;28;20070;-71
2022/07/24 10:27:04;;;;;;;6.53;5.72;;;;;;;34.36;28.86;99362.88;5142467;28;20450;-71
2022/07/24 10:29:59;;;;;;;6.03;5.32;;;;;;;34.91;26.25;99355.09;5142606;28;20057;-73
2022/07/24 10:32:50;;;;;;;7.40;4.82;;;;;;;35.28;27.67;99361.75;5143381;28;20158;-73
2022/07/24 10:35:41;;;;;;;5.95;5.32;;;;;;;35.56;25.91;99359.97;5134773;28;20051;-71
2022/07/24 10:38:37;;;;;;;7.50;5.60;;;;;;;33.72;28.75;99358.50;5152449;28;20544;-69
2022/07/24 10:41:27;;;;;;;6.85;5.20;;;;;;;34.82;27.21;99332.06;5128023;28;20213;-71
2022/07/24 10:44:19;;;;;;;6.13;5.10;;;;;;;35.17;26.24;99343.75;5132332;28;20046;-70
2022/07/24 10:47:16;;;;;;;6.00;4.97;;;;;;;35.19;28.39;99353.34;5130862;28;20133;-70
2022/07/24 10:50:07;;;;;;;7.10;5.63;;;;;;;35.35;27.38;99345.66;5128357;28;20153;-70
2022/07/24 10:53:20;;;;;;;7.22;4.97;;;;;;;35.84;27.55;99344.34;5130335;28;20113;-70
2022/07/24 10:56:17;;;;;;;;;;;;;;;35.53;27.55;99338.50;5130829;28;20054;-70
2022/07/24 10:59:09;;;;;;;8.50;5.95;;;;;;;34.18;28.67;99345.16;5128721;28;19929;-70
2022/07/24 11:02:44;;;;;;;7.63;5.47;;;;;;;34.74;27.27;99339.06;5128965;28;20058;-69
2022/07/24 11:05:38;;;;;;;8.60;5.60;;;;;;;34.49;26.85;99312.59;5139359;28;20050;-70
2022/07/24 11:08:30;;;;;;;5.97;5.38;;;;;;;34.86;28.39;99329.53;5138585;28;20070;-70
2022/07/24 11:11:23;;;;;;;6.55;5.53;;;;;;;35.36;27.97;99330.75;5142290;28;20133;-70
2022/07/24 11:14:18;;;;;;;7.40;5.22;;;;;;;34.11;29.05;99331.75;5141672;28;20122;-71
2022/07/24 11:17:38;;;;;;;6.03;5.43;;;;;;;34.36;29.84;99332.59;5140831;28;20057;-71
2022/07/24 11:20:35;;;;;;;7.32;5.55;;;;;;;34.70;28.10;99313.19;5141349;28;20054;-71
2022/07/24 11:23:25;;;;;;;7.10;5.60;;;;;;;34.41;27.49;99320.72;5142436;28;20189;-71
2022/07/24 11:26:30;;;;;;;6.20;5.60;;;;;;;34.97;28.15;99315.31;5142322;28;20172;-72
2022/07/24 11:29:23;;;;;;;7.07;5.68;;;;;;;34.81;28.98;99311.97;5141078;28;20126;-74
2022/07/24 11:32:17;;;;;;;6.97;6.13;;;;;;;33.93;30.31;99315.94;5141470;28;20457;-75
2022/07/24 11:35:08;;;;;;;8.02;5.80;;;;;;;33.79;29.17;99314.97;5138699;28;20054;-72
2022/07/24 11:38:01;;;;;;;11.07;6.30;;;;;;;32.91;30.04;99316.66;5139522;28;20113;-72
2022/07/24 11:41:04;;;;;;;6.93;5.93;;;;;;;33.39;29.84;99294.94;5137984;28;20105;-71
2022/07/24 11:43:54;;;;;;;8.02;6.88;;;;;;;33.48;29.91;99303.38;5139745;28;20424;-74
2022/07/24 11:46:44;;;;;;;25.45;15.45;;;;;;;33.93;28.90;99296.69;5141540;28;20047;-72
2022/07/24 11:49:40;;;;;;;29.60;17.92;;;;;;;34.12;29.21;99291.31;5141897;28;20038;-69
2022/07/24 11:52:36;;;;;;;10.90;7.32;;;;;;;34.27;29.29;99288.38;5140729;28;20098;-71
2022/07/24 11:55:26;;;;;;;11.85;7.10;;;;;;;34.75;28.73;99282.03;5142567;28;20124;-74
2022/07/24 11:58:18;;;;;;;13.02;7.88;;;;;;;33.86;29.24;99279.69;5143605;28;20407;-72
2022/07/24 12:01:27;;;;;;;14.30;10.48;;;;;;;34.31;28.75;99277.59;5140569;28;20413;-68
2022/07/24 12:04:22;;;;;;;7.45;6.22;;;;;;;33.49;29.13;99275.66;5134722;28;20102;-69
2022/07/24 12:07:16;;;;;;;9.38;6.60;;;;;;;32.34;30.90;99260.34;5126478;28;20057;-69
2022/07/24 12:10:06;;;;;;;10.77;6.38;;;;;;;32.76;29.85;99268.13;5127435;28;20055;-69
2022/07/24 12:12:57;;;;;;;7.93;6.55;;;;;;;33.16;30.13;99260.78;5138356;28;20061;-69
2022/07/24 12:15:47;;;;;;;9.27;6.55;;;;;;;32.91;29.76;99261.72;5142248;28;20157;-72
2022/07/24 12:18:38;;;;;;;11.35;7.30;;;;;;;33.43;30.56;99263.03;5137882;28;20101;-72
2022/07/24 12:21:28;;;;;;;11.20;7.25;;;;;;;33.36;28.90;99240.56;5136244;28;20050;-75
2022/07/24 12:24:20;;;;;;;11.00;7.60;;;;;;;33.46;29.25;99245.94;5127752;28;20713;-69
2022/07/24 12:27:10;;;;;;;9.88;6.97;;;;;;;31.87;30.51;99221.25;5134753;28;20094;-70
2022/07/24 12:30:03;;;;;;;10.52;7.03;;;;;;;32.71;31.50;99241.50;5132979;28;20117;-71
2022/07/24 12:33:04;;;;;;;8.40;6.88;;;;;;;33.29;29.94;99240.06;5127574;28;20062;-71
2022/07/24 12:36:01;;;;;;;10.82;7.50;;;;;;;33.30;30.39;99233.44;5138068;28;20086;-75
2022/07/24 12:38:55;;;;;;;8.70;6.13;;;;;;;33.91;29.96;99225.47;5133550;28;20050;-72
2022/07/24 12:41:48;;;;;;;7.55;6.47;;;;;;;33.99;29.45;99228.69;5137184;28;20076;-72
2022/07/24 12:44:42;;;;;;;10.15;6.93;;;;;;;34.00;31.24;99224.81;5126301;28;20549;-72
2022/07/24 12:47:33;;;;;;;13.82;9.35;;;;;;;34.02;29.16;99228.94;5124416;28;20525;-72
2022/07/24 12:50:23;;;;;;;14.18;9.85;;;;;;;33.72;30.50;99223.75;5125662;28;20081;-71
2022/07/24 12:53:36;;;;;;;13.48;7.93;;;;;;;33.68;30.65;99209.78;5125409;28;20058;-72
2022/07/24 12:56:33;;;;;;;10.02;7.75;;;;;;;33.57;30.31;99220.03;5123122;28;20062;-71
2022/07/24 12:59:32;;;;;;;8.95;6.32;;;;;;;33.35;30.02;99208.69;5130794;28;20129;-75
2022/07/24 13:02:24;;;;;;;9.90;6.43;;;;;;;32.93;29.33;99201.84;5141815;28;20148;-73
2022/07/24 13:05:14;;;;;;;8.10;6.43;;;;;;;33.06;30.87;99189.41;5134155;28;20051;-73
2022/07/24 13:08:08;;;;;;;10.25;8.52;;;;;;;32.72;31.40;99196.50;5134202;28;20721;-70
2022/07/24 13:10:59;;;;;;;9.23;7.68;;;;;;;32.81;31.26;99195.88;5136701;28;20426;-72
2022/07/24 13:13:49;;;;;;;10.93;7.45;;;;;;;32.75;31.27;99187.69;5131135;28;20569;-71
2022/07/24 13:16:42;;;;;;;9.45;7.47;;;;;;;32.95;32.24;99180.41;5134985;28;20421;-70